createdAt,value
2022-09-26T00:01:37.017Z,11.88
2022-09-26T00:06:34.972Z,10.98
2022-09-26T00:09:02.643Z,13.23
2022-09-26T00:11:33.124Z,13.55
2022-09-26T00:14:04.453Z,13.25
2022-09-26T00:16:32.404Z,13.73
2022-09-26T00:19:00.319Z,15.18
2022-09-26T00:21:30.308Z,15.63
2022-09-26T00:23:59.053Z,11.65
2022-09-26T00:26:28.195Z,14.80
2022-09-26T00:28:56.879Z,16.13
2022-09-26T00:31:29.350Z,12.07
2022-09-26T00:33:57.270Z,15.85
2022-09-26T00:36:37.093Z,14.35
2022-09-26T00:39:06.647Z,14.80
2022-09-26T00:41:34.701Z,15.27
2022-09-26T00:44:02.669Z,13.07
2022-09-26T00:46:37.991Z,12.88
2022-09-26T00:49:23.226Z,14.82
2022-09-26T00:51:57.852Z,13.40
2022-09-26T00:54:28.511Z,14.90
2022-09-26T00:57:02.859Z,15.52
2022-09-26T00:59:35.293Z,12.77
2022-09-26T01:02:04.716Z,15.52
2022-09-26T01:04:35.947Z,13.38
2022-09-26T01:07:08.871Z,12.88
2022-09-26T01:09:37.668Z,13.85
2022-09-26T01:12:07.026Z,11.40
2022-09-26T01:14:36.434Z,11.82
2022-09-26T01:17:05.272Z,12.52
2022-09-26T01:19:55.846Z,12.48
2022-09-26T01:22:51.750Z,12.77
2022-09-26T01:25:50.089Z,11.35
2022-09-26T01:28:48.552Z,12.15
2022-09-26T01:31:30.677Z,10.27
2022-09-26T01:34:10.650Z,10.95
2022-09-26T01:36:54.957Z,13.18
2022-09-26T01:39:31.950Z,10.77
2022-09-26T01:42:14.746Z,12.00
2022-09-26T01:44:49.020Z,11.68
2022-09-26T01:47:25.910Z,10.00
2022-09-26T01:50:10.896Z,9.45
2022-09-26T01:52:49.472Z,10.52
2022-09-26T01:55:22.270Z,10.73
2022-09-26T01:58:10.531Z,10.23
2022-09-26T02:00:40.202Z,11.80
2022-09-26T02:03:15.197Z,9.77
2022-09-26T02:05:49.281Z,10.55
2022-09-26T02:08:24.752Z,8.82
2022-09-26T02:10:59.751Z,12.35
2022-09-26T02:13:32.909Z,9.35
2022-09-26T02:16:08.881Z,11.15
2022-09-26T02:18:44.815Z,10.93
2022-09-26T02:21:17.822Z,12.00
2022-09-26T02:26:13.798Z,10.55
2022-09-26T02:28:42.082Z,8.73
2022-09-26T02:31:11.161Z,10.38
2022-09-26T02:33:39.018Z,10.57
2022-09-26T02:36:10.471Z,11.05
2022-09-26T02:38:38.196Z,9.48
2022-09-26T02:41:31.134Z,8.00
2022-09-26T02:44:21.897Z,9.98
2022-09-26T02:47:20.035Z,9.52
2022-09-26T02:50:14.292Z,9.18
2022-09-26T02:52:54.652Z,9.40
2022-09-26T02:55:28.371Z,7.82
2022-09-26T02:58:19.472Z,9.20
2022-09-26T03:01:18.180Z,9.88
2022-09-26T03:04:14.917Z,8.98
2022-09-26T03:06:47.128Z,8.75
2022-09-26T03:09:17.333Z,10.30
2022-09-26T03:11:45.737Z,11.00
2022-09-26T03:14:15.314Z,11.13
2022-09-26T03:16:45.508Z,9.60
2022-09-26T03:19:22.729Z,8.65
2022-09-26T03:21:50.274Z,10.43
2022-09-26T03:24:17.879Z,8.82
2022-09-26T03:26:46.971Z,9.38
2022-09-26T03:29:14.652Z,9.38
2022-09-26T03:31:42.702Z,9.10
2022-09-26T03:34:10.316Z,8.55
2022-09-26T03:36:37.899Z,10.10
2022-09-26T03:39:05.946Z,8.32
2022-09-26T03:41:34.832Z,9.15
2022-09-26T03:44:03.588Z,12.40
2022-09-26T03:46:39.671Z,8.35
2022-09-26T03:49:07.551Z,9.38
2022-09-26T03:51:35.598Z,12.90
2022-09-26T03:54:03.934Z,10.73
2022-09-26T03:56:31.467Z,9.82
2022-09-26T03:58:59.015Z,10.20
2022-09-26T04:01:27.035Z,13.35
2022-09-26T04:03:54.537Z,11.90
2022-09-26T04:06:22.098Z,12.40
2022-09-26T04:08:51.513Z,11.18
2022-09-26T04:11:22.286Z,10.00
2022-09-26T04:13:53.778Z,12.07
2022-09-26T04:16:24.097Z,11.85
2022-09-26T04:18:56.920Z,9.60
2022-09-26T04:21:27.512Z,10.40
2022-09-26T04:23:55.561Z,12.18
2022-09-26T04:26:24.442Z,11.18
2022-09-26T04:28:55.359Z,11.70
2022-09-26T04:31:24.606Z,11.55
2022-09-26T04:33:52.464Z,10.90
2022-09-26T04:36:20.028Z,11.98
2022-09-26T04:38:48.838Z,11.35
2022-09-26T04:41:20.344Z,12.82
2022-09-26T04:43:50.249Z,11.25
2022-09-26T04:46:24.510Z,11.63
2022-09-26T04:48:55.356Z,10.55
2022-09-26T04:51:25.466Z,11.13
2022-09-26T04:53:53.417Z,12.02
2022-09-26T04:56:23.028Z,11.02
2022-09-26T04:58:50.799Z,10.75
2022-09-26T05:01:20.437Z,11.20
2022-09-26T05:03:48.617Z,10.10
2022-09-26T05:06:17.771Z,9.95
2022-09-26T05:08:46.998Z,10.52
2022-09-26T05:11:17.339Z,11.00
2022-09-26T05:13:46.037Z,8.10
2022-09-26T05:16:17.423Z,7.00
2022-09-26T05:18:49.322Z,8.30
2022-09-26T05:21:17.623Z,7.25
2022-09-26T05:24:00.470Z,7.00
2022-09-26T05:26:39.199Z,5.90
2022-09-26T05:29:09.118Z,9.18
2022-09-26T05:31:38.600Z,6.32
2022-09-26T05:34:08.100Z,7.05
2022-09-26T05:36:35.679Z,7.70
2022-09-26T05:39:05.379Z,9.20
2022-09-26T05:41:33.836Z,6.68
2022-09-26T05:44:01.616Z,7.13
2022-09-26T05:46:29.372Z,6.78
2022-09-26T05:48:57.369Z,4.70
2022-09-26T05:51:25.242Z,5.22
2022-09-26T05:53:53.299Z,4.80
2022-09-26T05:56:20.734Z,4.57
2022-09-26T05:58:48.277Z,5.07
2022-09-26T06:01:18.533Z,4.47
2022-09-26T06:03:47.306Z,5.63
2022-09-26T06:06:18.452Z,4.20
2022-09-26T06:08:47.035Z,6.07
2022-09-26T06:11:17.482Z,3.85
2022-09-26T06:13:46.080Z,3.50
2022-09-26T06:16:18.750Z,5.15
2022-09-26T06:18:47.668Z,4.22
2022-09-26T06:21:17.650Z,3.25
2022-09-26T06:23:46.072Z,6.05
2022-09-26T06:26:25.618Z,4.43
2022-09-26T06:28:58.401Z,3.40
2022-09-26T06:31:26.664Z,2.47
2022-09-26T06:33:54.537Z,2.97
2022-09-26T06:36:24.064Z,3.45
2022-09-26T06:38:53.880Z,3.28
2022-09-26T06:41:21.621Z,3.00
2022-09-26T06:43:50.123Z,2.45
2022-09-26T06:46:17.834Z,3.80
2022-09-26T06:48:45.492Z,3.95
2022-09-26T06:51:14.439Z,1.90
2022-09-26T06:53:44.795Z,2.00
2022-09-26T06:56:13.625Z,2.17
2022-09-26T06:58:42.028Z,1.60
2022-09-26T07:01:11.302Z,1.38
2022-09-26T07:03:44.414Z,4.32
2022-09-26T07:06:13.623Z,1.58
2022-09-26T07:09:01.610Z,3.92
2022-09-26T07:11:38.181Z,1.92
2022-09-26T07:14:17.458Z,3.15
2022-09-26T07:16:48.381Z,2.28
2022-09-26T07:19:17.224Z,2.03
2022-09-26T07:21:45.575Z,2.15
2022-09-26T07:24:14.492Z,2.55
2022-09-26T07:26:42.658Z,1.92
2022-09-26T07:29:10.764Z,2.90
2022-09-26T07:31:38.608Z,1.45
2022-09-26T07:34:07.885Z,2.90
2022-09-26T07:36:35.526Z,2.75
2022-09-26T07:39:03.064Z,2.92
2022-09-26T07:41:31.414Z,1.60
2022-09-26T07:47:02.488Z,2.17
2022-09-26T07:49:45.425Z,1.58
2022-09-26T07:52:12.999Z,3.25
2022-09-26T07:54:40.475Z,3.13
2022-09-26T07:57:08.019Z,2.22
2022-09-26T07:59:36.956Z,2.42
2022-09-26T08:02:04.702Z,2.63
2022-09-26T08:04:32.408Z,4.18
2022-09-26T08:07:01.651Z,1.92
2022-09-26T08:09:29.350Z,2.40
2022-09-26T08:11:57.327Z,3.72
2022-09-26T08:14:25.242Z,3.20
2022-09-26T08:16:56.350Z,1.83
2022-09-26T08:19:24.648Z,1.10
2022-09-26T08:21:52.402Z,1.10
2022-09-26T08:24:20.183Z,1.90
2022-09-26T08:26:47.717Z,1.10
2022-09-26T08:29:15.354Z,1.00
2022-09-26T08:31:43.301Z,1.30
2022-09-26T08:34:10.921Z,2.90
2022-09-26T08:36:38.825Z,2.08
2022-09-26T08:39:06.760Z,1.50
2022-09-26T08:42:04.997Z,1.35
2022-09-26T08:44:57.091Z,1.63
2022-09-26T08:47:41.033Z,1.17
2022-09-26T08:50:33.366Z,1.60
2022-09-26T08:53:10.029Z,1.45
2022-09-26T08:55:43.349Z,2.03
2022-09-26T08:58:25.330Z,2.60
2022-09-26T09:01:02.967Z,1.60
2022-09-26T09:03:35.233Z,1.20
2022-09-26T09:06:12.007Z,2.50
2022-09-26T09:08:45.952Z,2.08
2022-09-26T09:11:34.899Z,2.63
2022-09-26T09:14:28.533Z,2.78
2022-09-26T09:17:24.068Z,3.13
2022-09-26T09:20:10.585Z,4.25
2022-09-26T09:23:12.570Z,4.32
2022-09-26T09:27:52.438Z,1.92
2022-09-26T09:29:21.528Z,1.92
2022-09-26T09:31:49.642Z,2.85
2022-09-26T09:34:27.143Z,3.55
2022-09-26T09:36:59.557Z,3.05
2022-09-26T09:39:35.445Z,3.78
2022-09-26T09:42:13.493Z,2.90
2022-09-26T09:44:50.934Z,2.50
2022-09-26T09:47:21.072Z,2.20
2022-09-26T09:49:50.332Z,2.33
2022-09-26T09:52:41.927Z,2.00
2022-09-26T09:55:30.688Z,2.63
2022-09-26T09:58:12.402Z,1.60
2022-09-26T10:00:51.374Z,1.40
2022-09-26T10:03:39.068Z,2.97
2022-09-26T10:06:46.280Z,1.67
2022-09-26T10:08:57.544Z,2.72
2022-09-26T10:11:49.079Z,2.47
2022-09-26T10:14:29.816Z,2.25
2022-09-26T10:17:14.932Z,1.80
2022-09-26T10:19:44.622Z,1.48
2022-09-26T10:22:26.231Z,2.47
2022-09-26T10:25:02.487Z,2.17
2022-09-26T10:27:38.713Z,2.47
2022-09-26T10:30:30.332Z,1.73
2022-09-26T10:33:01.012Z,1.60
2022-09-26T10:35:44.746Z,2.55
2022-09-26T10:38:22.508Z,1.85
2022-09-26T10:40:55.545Z,1.15
2022-09-26T10:46:03.289Z,3.15
2022-09-26T10:48:48.519Z,1.33
2022-09-26T10:51:36.424Z,2.58
2022-09-26T10:54:12.322Z,2.22
2022-09-26T10:56:44.170Z,2.15
2022-09-26T10:59:15.321Z,1.48
2022-09-26T11:01:51.594Z,3.10
2022-09-26T11:04:38.780Z,2.72
2022-09-26T11:07:10.063Z,3.08
2022-09-26T11:09:38.639Z,2.33
2022-09-26T11:12:25.566Z,3.03
2022-09-26T11:15:05.843Z,5.00
2022-09-26T11:17:49.663Z,2.05
2022-09-26T11:20:52.577Z,2.67
2022-09-26T11:23:41.203Z,2.83
2022-09-26T11:26:32.420Z,3.42
2022-09-26T11:29:16.959Z,3.15
2022-09-26T11:31:46.287Z,2.22
2022-09-26T11:34:18.078Z,1.75
2022-09-26T11:37:19.397Z,4.15
2022-09-26T11:40:09.789Z,2.83
2022-09-26T11:42:59.810Z,3.70
2022-09-26T11:45:49.041Z,2.13
2022-09-26T11:48:42.324Z,3.33
2022-09-26T11:51:35.390Z,1.83
2022-09-26T11:54:21.836Z,4.18
2022-09-26T11:57:08.803Z,4.13
2022-09-26T12:00:07.222Z,9.73
2022-09-26T12:03:10.375Z,5.57
2022-09-26T12:06:01.959Z,3.83
2022-09-26T12:08:58.082Z,3.70
2022-09-26T12:11:45.821Z,4.28
2022-09-26T12:14:40.876Z,2.53
2022-09-26T12:17:36.400Z,1.80
2022-09-26T12:20:30.811Z,2.17
2022-09-26T12:23:12.861Z,2.55
2022-09-26T12:25:56.040Z,1.55
2022-09-26T12:28:54.118Z,1.95
2022-09-26T12:31:43.931Z,1.85
2022-09-26T12:34:37.989Z,1.25
2022-09-26T12:37:41.801Z,3.95
2022-09-26T12:40:40.312Z,1.52
2022-09-26T12:43:26.478Z,3.42
2022-09-26T12:46:10.261Z,2.28
2022-09-26T12:49:07.844Z,1.95
2022-09-26T12:51:55.797Z,1.60
2022-09-26T12:54:42.467Z,1.50
2022-09-26T12:57:33.811Z,1.58
2022-09-26T13:00:22.396Z,2.42
2022-09-26T13:03:13.007Z,2.45
2022-09-26T13:06:08.315Z,2.10
2022-09-26T13:08:57.665Z,3.05
2022-09-26T13:11:56.952Z,1.80
2022-09-26T13:14:45.634Z,2.63
2022-09-26T13:17:21.926Z,1.50
2022-09-26T13:20:04.230Z,4.03
2022-09-26T13:22:41.600Z,2.22
2022-09-26T13:25:21.516Z,4.05
2022-09-26T13:27:59.022Z,5.95
2022-09-26T13:30:33.702Z,3.95
2022-09-26T13:33:21.577Z,6.65
2022-09-26T13:35:51.942Z,2.55
2022-09-26T13:38:36.924Z,2.78
2022-09-26T13:41:36.894Z,1.88
2022-09-26T13:44:18.689Z,2.20
2022-09-26T13:47:17.039Z,2.78
2022-09-26T13:50:20.380Z,2.58
2022-09-26T13:53:04.389Z,1.80
2022-09-26T13:55:32.161Z,2.65
2022-09-26T13:58:07.717Z,2.50
2022-09-26T14:00:41.262Z,2.92
2022-09-26T14:03:36.194Z,1.88
2022-09-26T14:06:26.149Z,2.03
2022-09-26T14:09:29.419Z,2.60
2022-09-26T14:12:17.791Z,3.15
2022-09-26T14:14:51.446Z,1.50
2022-09-26T14:17:54.560Z,1.65
2022-09-26T14:20:28.265Z,1.40
2022-09-26T14:22:57.910Z,2.22
2022-09-26T14:25:54.095Z,2.30
2022-09-26T14:28:32.003Z,1.50
2022-09-26T14:31:30.729Z,3.28
2022-09-26T14:34:19.821Z,3.60
2022-09-26T14:36:53.631Z,2.13
2022-09-26T14:39:41.269Z,2.45
2022-09-26T14:42:16.096Z,2.50
2022-09-26T14:44:56.213Z,3.78
2022-09-26T14:47:27.444Z,2.72
2022-09-26T14:50:03.676Z,3.85
2022-09-26T14:52:33.236Z,3.22
2022-09-26T14:55:06.523Z,3.17
2022-09-26T15:00:03.935Z,3.30
2022-09-26T15:02:41.491Z,5.07
2022-09-26T15:05:23.945Z,3.58
2022-09-26T15:07:55.470Z,3.42
2022-09-26T15:10:28.654Z,3.67
2022-09-26T15:15:59.426Z,4.28
2022-09-26T15:18:35.911Z,5.90
2022-09-26T15:21:27.163Z,4.50
2022-09-26T15:23:57.141Z,3.72
2022-09-26T15:26:32.664Z,5.10
2022-09-26T15:29:01.879Z,6.35
2022-09-26T15:31:42.897Z,5.22
2022-09-26T15:34:19.137Z,5.25
2022-09-26T15:36:54.479Z,7.60
2022-09-26T15:39:42.581Z,7.47
2022-09-26T15:42:39.737Z,6.72
2022-09-26T15:45:28.037Z,8.40
2022-09-26T15:47:58.130Z,7.75
2022-09-26T15:50:40.666Z,7.13
2022-09-26T15:53:36.823Z,6.40
2022-09-26T15:56:10.336Z,6.22
2022-09-26T15:58:50.954Z,5.82
2022-09-26T16:01:22.345Z,6.07
2022-09-26T16:04:03.788Z,6.45
2022-09-26T16:06:42.245Z,5.10
2022-09-26T16:09:31.084Z,7.15
2022-09-26T16:12:09.340Z,4.05
2022-09-26T16:14:47.926Z,5.45
2022-09-26T16:17:28.305Z,3.45
2022-09-26T16:19:58.936Z,4.00
2022-09-26T16:22:45.950Z,6.97
2022-09-26T16:25:32.915Z,3.95
2022-09-26T16:28:23.538Z,6.00
2022-09-26T16:31:10.780Z,5.05
2022-09-26T16:33:40.705Z,4.18
2022-09-26T16:36:22.215Z,5.70
2022-09-26T16:38:56.520Z,4.85
2022-09-26T16:42:02.843Z,4.10
2022-09-26T16:44:40.691Z,8.00
2022-09-26T16:47:40.952Z,9.35
2022-09-26T16:50:29.082Z,7.05
2022-09-26T16:52:58.288Z,6.97
2022-09-26T16:55:27.943Z,11.35
2022-09-26T16:57:59.284Z,12.40
2022-09-26T17:00:51.987Z,10.55
2022-09-26T17:03:25.194Z,7.97
2022-09-26T17:05:56.156Z,10.75
2022-09-26T17:08:27.170Z,8.40
2022-09-26T17:10:56.817Z,9.35
2022-09-26T17:13:27.573Z,8.23
2022-09-26T17:16:01.071Z,6.88
2022-09-26T17:18:32.684Z,6.40
2022-09-26T17:21:01.557Z,6.28
2022-09-26T17:23:42.056Z,8.52
2022-09-26T17:26:20.364Z,6.80
2022-09-26T17:28:49.144Z,9.40
2022-09-26T17:31:20.711Z,5.93
2022-09-26T17:33:53.091Z,5.60
2022-09-26T17:36:26.523Z,8.37
2022-09-26T17:38:56.019Z,6.18
2022-09-26T17:41:30.579Z,5.68
2022-09-26T17:44:01.188Z,7.95
2022-09-26T17:46:30.599Z,6.03
2022-09-26T17:49:00.200Z,7.30
2022-09-26T17:51:29.731Z,7.18
2022-09-26T17:53:59.650Z,5.97
2022-09-26T17:56:28.206Z,6.10
2022-09-26T17:58:57.644Z,5.82
2022-09-26T18:01:29.085Z,7.07
2022-09-26T18:04:03.185Z,4.95
2022-09-26T18:06:33.630Z,6.22
2022-09-26T18:09:07.824Z,6.68
2022-09-26T18:11:38.060Z,7.95
2022-09-26T18:14:08.599Z,7.38
2022-09-26T18:16:37.013Z,9.27
2022-09-26T18:19:07.684Z,5.85
2022-09-26T18:21:40.391Z,6.82
2022-09-26T18:24:19.221Z,9.02
2022-09-26T18:26:51.485Z,6.63
2022-09-26T18:29:31.771Z,7.40
2022-09-26T18:32:02.058Z,6.45
2022-09-26T18:34:31.152Z,7.97
2022-09-26T18:37:01.356Z,8.73
2022-09-26T18:39:31.228Z,5.65
2022-09-26T18:42:05.008Z,8.32
2022-09-26T18:44:38.915Z,11.55
2022-09-26T18:47:15.234Z,7.75
2022-09-26T18:49:48.319Z,7.75
2022-09-26T18:52:18.572Z,7.05
2022-09-26T18:55:08.222Z,8.15
2022-09-26T18:57:52.027Z,7.55
2022-09-26T19:00:20.318Z,7.80
2022-09-26T19:02:51.525Z,6.68
2022-09-26T19:05:20.589Z,8.35
2022-09-26T19:07:49.060Z,9.40
2022-09-26T19:10:20.547Z,9.90
2022-09-26T19:12:49.206Z,8.02
2022-09-26T19:15:19.508Z,7.25
2022-09-26T19:17:50.755Z,7.90
2022-09-26T19:20:20.086Z,8.77
2022-09-26T19:22:48.565Z,8.68
2022-09-26T19:25:17.202Z,8.00
2022-09-26T19:27:53.394Z,8.52
2022-09-26T19:30:23.261Z,6.88
2022-09-26T19:32:54.609Z,8.18
2022-09-26T19:35:40.497Z,8.80
2022-09-26T19:38:28.052Z,10.32
2022-09-26T19:40:57.249Z,11.32
2022-09-26T19:43:25.831Z,13.57
2022-09-26T19:45:55.273Z,10.32
2022-09-26T19:48:24.980Z,13.68
2022-09-26T19:50:54.371Z,8.80
2022-09-26T19:53:26.037Z,10.90
2022-09-26T19:55:56.406Z,6.88
2022-09-26T19:58:26.721Z,12.68
2022-09-26T20:00:58.014Z,13.07
2022-09-26T20:03:32.093Z,12.73
2022-09-26T20:05:59.981Z,12.40
2022-09-26T20:08:28.227Z,9.98
2022-09-26T20:10:57.139Z,10.98
2022-09-26T20:13:25.247Z,13.43
2022-09-26T20:15:53.385Z,12.48
2022-09-26T20:18:24.370Z,10.25
2022-09-26T20:20:55.232Z,11.57
2022-09-26T20:23:26.382Z,11.38
2022-09-26T20:25:56.052Z,11.15
2022-09-26T20:28:24.222Z,15.35
2022-09-26T20:30:52.171Z,8.00
2022-09-26T20:33:22.732Z,10.43
2022-09-26T20:36:00.259Z,9.57
2022-09-26T20:38:41.777Z,8.63
2022-09-26T20:41:19.692Z,9.45
2022-09-26T20:43:50.685Z,12.68
2022-09-26T20:46:22.388Z,13.30
2022-09-26T20:48:50.718Z,14.50
2022-09-26T20:51:27.412Z,13.77
2022-09-26T20:53:54.981Z,11.48
2022-09-26T20:56:22.624Z,9.25
2022-09-26T20:58:50.502Z,11.60
2022-09-26T21:01:19.849Z,10.20
2022-09-26T21:03:52.254Z,10.55
2022-09-26T21:06:24.139Z,7.88
2022-09-26T21:08:51.727Z,10.30
2022-09-26T21:11:21.125Z,8.43
2022-09-26T21:13:49.814Z,8.85
2022-09-26T21:16:19.989Z,8.57
2022-09-26T21:18:51.608Z,10.70
2022-09-26T21:21:23.774Z,9.32
2022-09-26T21:23:51.905Z,9.80
2022-09-26T21:26:22.383Z,9.25
2022-09-26T21:28:51.501Z,11.07
2022-09-26T21:31:31.262Z,9.02
2022-09-26T21:34:00.483Z,11.98
2022-09-26T21:36:35.019Z,10.40
2022-09-26T21:39:03.714Z,9.77
2022-09-26T21:41:31.535Z,11.00
2022-09-26T21:44:05.076Z,10.52
2022-09-26T21:46:32.763Z,12.38
2022-09-26T21:49:00.467Z,11.75
2022-09-26T21:51:28.933Z,8.48
2022-09-26T21:54:02.994Z,12.52
2022-09-26T21:56:33.805Z,10.30
2022-09-26T21:59:01.492Z,10.95
2022-09-26T22:01:29.550Z,9.77
2022-09-26T22:03:57.280Z,9.45
2022-09-26T22:06:25.041Z,10.65
2022-09-26T22:08:52.731Z,12.63
2022-09-26T22:11:20.356Z,10.38
2022-09-26T22:13:48.239Z,10.57
2022-09-26T22:16:16.092Z,8.48
2022-09-26T22:18:43.914Z,9.63
2022-09-26T22:21:12.068Z,9.55
2022-09-26T22:23:39.867Z,8.05
2022-09-26T22:26:07.703Z,13.20
2022-09-26T22:28:35.366Z,14.48
2022-09-26T22:31:04.422Z,8.68
2022-09-26T22:33:32.239Z,9.82
2022-09-26T22:35:59.921Z,14.90
2022-09-26T22:38:27.472Z,10.93
2022-09-26T22:40:59.951Z,12.68
2022-09-26T22:43:28.627Z,18.10
2022-09-26T22:46:08.086Z,12.27
2022-09-26T22:48:38.875Z,10.95
2022-09-26T22:51:07.438Z,13.38
2022-09-26T22:53:37.720Z,10.88
2022-09-26T22:56:07.138Z,11.07
2022-09-26T22:58:38.428Z,12.05
2022-09-26T23:01:09.070Z,9.25
2022-09-26T23:03:37.829Z,10.73
2022-09-26T23:06:06.268Z,12.13
2022-09-26T23:08:34.566Z,7.53
2022-09-26T23:11:03.170Z,12.20
2022-09-26T23:13:32.220Z,12.52
2022-09-26T23:16:17.489Z,13.20
2022-09-26T23:18:45.466Z,16.13
2022-09-26T23:21:16.438Z,14.95
2022-09-26T23:23:46.145Z,12.95
2022-09-26T23:26:22.303Z,9.55
2022-09-26T23:28:52.000Z,10.93
2022-09-26T23:31:20.495Z,8.52
2022-09-26T23:33:48.436Z,9.60
2022-09-26T23:36:16.479Z,8.13
2022-09-26T23:38:45.401Z,9.70
2022-09-26T23:41:13.929Z,8.07
2022-09-26T23:43:41.883Z,10.88
2022-09-26T23:46:10.757Z,10.27
2022-09-26T23:48:40.119Z,8.48
2022-09-26T23:51:08.269Z,8.20
2022-09-26T23:53:36.057Z,8.70
2022-09-26T23:56:09.709Z,8.15
2022-09-26T23:58:38.085Z,8.77
